Time;durP1;ratioP1;P1;durP2;ratioP2;P2;SDS_P1;SDS_P2;PMS_P1;PMS_P2;Temp;Humidity;BMP_temperature;BMP_pressure;BME280_temperature;BME280_humidity;BME280_pressure;Samples;Min_cycle;Max_cycle;Signal;HPM_P1;HPM_P2
2022/03/14 00:07:30;;;;;;;29.7;41.1;;;;;;;-2.6;70.4;99830;;;;
2022/03/14 00:18:29;;;;;;;30.2;39.8;;;;;;;-2.8;70.4;99830;;;;
2022/03/14 00:28:29;;;;;;;30.2;39.8;;;;;;;-2.7;71.9;99840;;;;
2022/03/14 00:39:29;;;;;;;30.2;39.8;;;;;;;-2.8;71.8;99840;;;;
2022/03/14 00:49:29;;;;;;;31.8;44.5;;;;;;;-3;71.3;99830;;;;
2022/03/14 00:59:29;;;;;;;31.8;44.5;;;;;;;-3.1;71.8;99840;;;;
2022/03/14 01:10:29;;;;;;;31.8;44.5;;;;;;;-3.2;71.9;99850;;;;
2022/03/14 01:21:30;;;;;;;35.4;49.3;;;;;;;-3.2;74.1;99850;;;;
2022/03/14 01:32:29;;;;;;;35.4;49.3;;;;;;;-3.2;74.2;99850;;;;
2022/03/14 01:42:29;;;;;;;35.4;49.3;;;;;;;-3.4;73.9;99850;;;;
2022/03/14 01:53:29;;;;;;;32.1;43.1;;;;;;;-3.4;75;99870;;;;
2022/03/14 02:03:29;;;;;;;32.1;43.1;;;;;;;-3.4;75.9;99880;;;;
2022/03/14 02:14:30;;;;;;;32.1;43.1;;;;;;;-3.5;75.3;99880;;;;
2022/03/14 02:24:29;;;;;;;27;40.6;;;;;;;-3.6;75.1;99880;;;;
2022/03/14 02:34:29;;;;;;;27;40.6;;;;;;;-3.7;75.3;99890;;;;
2022/03/14 02:45:30;;;;;;;27;40.6;;;;;;;-3.8;75.5;99900;;;;
2022/03/14 02:55:29;;;;;;;28.2;43;;;;;;;-3.9;76.3;99900;;;;
2022/03/14 03:06:29;;;;;;;28.2;43;;;;;;;-4;76.8;99910;;;;
2022/03/14 03:16:29;;;;;;;26.7;40.2;;;;;;;-4.1;76.5;99920;;;;
2022/03/14 03:27:29;;;;;;;26.7;40.2;;;;;;;-4.3;76;99920;;;;
2022/03/14 03:37:29;;;;;;;26.7;40.2;;;;;;;-4.5;75.9;99930;;;;
2022/03/14 03:48:29;;;;;;;24;39.5;;;;;;;-4.7;76.3;99940;;;;
2022/03/14 03:59:29;;;;;;;24;39.5;;;;;;;-4.6;78.2;99950;;;;
2022/03/14 04:10:29;;;;;;;24;39.5;;;;;;;-4.5;78.9;99950;;;;
2022/03/14 04:21:29;;;;;;;26.1;41.3;;;;;;;-4.3;79.9;99960;;;;
2022/03/14 04:32:29;;;;;;;26.1;41.3;;;;;;;-4.3;79.9;99960;;;;
2022/03/14 04:42:29;;;;;;;26.1;41.3;;;;;;;-4.4;79.3;99970;;;;
2022/03/14 04:52:29;;;;;;;28;41.3;;;;;;;-4.6;78.7;99980;;;;
2022/03/14 05:03:29;;;;;;;28;41.3;;;;;;;-4.7;78.3;99990;;;;
2022/03/14 05:14:30;;;;;;;28;41.3;;;;;;;-4.8;78.3;100000;;;;
2022/03/14 05:24:29;;;;;;;26.6;45.2;;;;;;;-4.8;78.2;99990;;;;
2022/03/14 05:35:29;;;;;;;26.6;45.2;;;;;;;-4.7;78.3;100000;;;;
2022/03/14 05:45:29;;;;;;;25.4;44.4;;;;;;;-4.4;78.4;100010;;;;
2022/03/14 05:56:29;;;;;;;25.4;44.4;;;;;;;-4;78.8;100010;;;;
2022/03/14 06:06:29;;;;;;;25.4;44.4;;;;;;;-3.7;78.5;100020;;;;
2022/03/14 06:16:29;;;;;;;31.7;42.9;;;;;;;-3.1;78.2;100020;;;;
2022/03/14 06:26:29;;;;;;;31.7;42.9;;;;;;;-2.7;77.5;100030;;;;
2022/03/14 06:37:29;;;;;;;31.7;42.9;;;;;;;-2.2;76.2;100030;;;;
2022/03/14 06:47:29;;;;;;;38.3;50.4;;;;;;;-1.7;74.6;100040;;;;
2022/03/14 06:57:29;;;;;;;38.3;50.4;;;;;;;-1.3;73.4;100050;;;;
2022/03/14 07:08:29;;;;;;;38.3;50.4;;;;;;;-0.7;72.3;100050;;;;
2022/03/14 07:18:30;;;;;;;40.9;49.4;;;;;;;-0.1;70.8;100060;;;;
2022/03/14 07:28:29;;;;;;;40.9;49.4;;;;;;;0.3;69.6;100060;;;;
2022/03/14 07:39:29;;;;;;;40.9;49.4;;;;;;;1;68.1;100070;;;;
2022/03/14 07:49:29;;;;;;;44.7;56.1;;;;;;;1.7;66.1;100080;;;;
2022/03/14 08:00:29;;;;;;;44.7;56.1;;;;;;;2.3;63.7;100080;;;;
2022/03/14 08:11:29;;;;;;;44.7;56.1;;;;;;;3;60.4;100080;;;;
2022/03/14 08:21:29;;;;;;;40;46.3;;;;;;;3.5;59.3;100080;;;;
2022/03/14 08:32:29;;;;;;;40;46.3;;;;;;;4.2;57;100080;;;;
2022/03/14 08:42:29;;;;;;;40;46.3;;;;;;;4.8;55.3;100070;;;;
2022/03/14 08:53:29;;;;;;;38.6;48.1;;;;;;;5.6;52.8;100080;;;;
2022/03/14 09:04:29;;;;;;;38.6;48.1;;;;;;;6.2;51.1;100070;;;;
2022/03/14 09:15:29;;;;;;;32.4;36.5;;;;;;;6.9;49.1;100080;;;;
2022/03/14 09:25:29;;;;;;;32.4;36.5;;;;;;;7.3;47;100080;;;;
2022/03/14 09:36:29;;;;;;;32.4;36.5;;;;;;;8;44.9;100080;;;;
2022/03/14 09:46:29;;;;;;;28;33.6;;;;;;;8.4;43.8;100060;;;;
2022/03/14 09:57:29;;;;;;;28;33.6;;;;;;;9;43.3;100060;;;;
2022/03/14 10:08:29;;;;;;;28;33.6;;;;;;;9.3;41.8;100060;;;;
2022/03/14 10:19:29;;;;;;;27.6;33.5;;;;;;;9.8;41.2;100060;;;;
2022/03/14 10:29:30;;;;;;;27.6;33.5;;;;;;;10;40.1;100060;;;;
2022/03/14 10:39:29;;;;;;;27.6;33.5;;;;;;;10.2;39.1;100060;;;;
2022/03/14 10:50:29;;;;;;;25.9;29.2;;;;;;;10.7;38.6;100050;;;;
2022/03/14 11:00:29;;;;;;;25.9;29.2;;;;;;;11;38.2;100030;;;;
2022/03/14 11:11:29;;;;;;;25.9;29.2;;;;;;;11.4;37.1;100030;;;;
2022/03/14 11:21:29;;;;;;;23.3;26.8;;;;;;;11.5;34.8;100020;;;;
2022/03/14 11:32:29;;;;;;;23.3;26.8;;;;;;;12.1;33.7;100010;;;;
2022/03/14 11:42:29;;;;;;;23.3;26.8;;;;;;;12.3;33.4;100000;;;;
2022/03/14 11:53:29;;;;;;;18.2;26.4;;;;;;;12.6;30.6;99990;;;;
2022/03/14 12:03:29;;;;;;;18.2;26.4;;;;;;;13;29.8;99970;;;;
2022/03/14 12:14:29;;;;;;;11.9;17.8;;;;;;;13;28.4;99970;;;;
2022/03/14 12:25:29;;;;;;;11.9;17.8;;;;;;;13.4;27.8;99960;;;;
2022/03/14 12:36:29;;;;;;;11.9;17.8;;;;;;;13.5;27.5;99940;;;;
2022/03/14 12:47:29;;;;;;;9.1;12;;;;;;;13.7;27.8;99940;;;;
2022/03/14 12:57:29;;;;;;;9.1;12;;;;;;;13.9;27.3;99940;;;;
2022/03/14 13:08:29;;;;;;;9.1;12;;;;;;;14.2;27.1;99940;;;;
2022/03/14 13:18:29;;;;;;;6.9;12;;;;;;;14.1;27;99930;;;;
2022/03/14 13:28:29;;;;;;;6.9;12;;;;;;;14.1;26.1;99930;;;;
2022/03/14 13:39:29;;;;;;;6.9;12;;;;;;;14.5;26.4;99930;;;;
2022/03/14 13:50:30;;;;;;;5.8;8.8;;;;;;;14.7;26.7;99940;;;;
2022/03/14 14:00:30;;;;;;;5.8;8.8;;;;;;;14.6;26.6;99950;;;;
2022/03/14 14:10:29;;;;;;;5.8;8.8;;;;;;;14.6;27;99950;;;;
2022/03/14 14:21:29;;;;;;;7.9;11.5;;;;;;;14.7;26.3;99950;;;;
2022/03/14 14:31:29;;;;;;;7.9;11.5;;;;;;;14.6;26.5;99950;;;;
2022/03/14 14:42:29;;;;;;;7.9;11.5;;;;;;;14.8;26.2;99950;;;;
2022/03/14 14:53:29;;;;;;;8;11.8;;;;;;;14.7;26.7;99970;;;;
2022/03/14 15:03:29;;;;;;;8;11.8;;;;;;;14.6;27.1;99970;;;;
2022/03/14 15:14:30;;;;;;;8.2;11.7;;;;;;;14.2;27.6;99970;;;;
2022/03/14 15:25:29;;;;;;;8.2;11.7;;;;;;;14;27.6;99980;;;;
2022/03/14 15:36:29;;;;;;;8.2;11.7;;;;;;;14;27.6;99980;;;;
2022/03/14 15:47:29;;;;;;;9.5;12.1;;;;;;;15;26.7;99980;;;;
2022/03/14 15:57:29;;;;;;;9.5;12.1;;;;;;;16.2;25.2;99970;;;;
2022/03/14 16:07:29;;;;;;;9.5;12.1;;;;;;;16.3;24.5;99980;;;;
2022/03/14 16:18:29;;;;;;;9.3;20.1;;;;;;;14.9;26.3;100000;;;;
2022/03/14 16:29:29;;;;;;;9.3;20.1;;;;;;;12.6;29.8;100010;;;;
2022/03/14 16:40:29;;;;;;;9.3;20.1;;;;;;;10.9;31;100020;;;;
2022/03/14 16:51:29;;;;;;;12.3;14.2;;;;;;;9.3;33.9;100030;;;;
2022/03/14 17:01:29;;;;;;;12.3;14.2;;;;;;;8.3;35.5;100030;;;;
2022/03/14 17:11:29;;;;;;;12.3;14.2;;;;;;;7.9;37.6;100030;;;;
2022/03/14 17:22:29;;;;;;;19.5;26.1;;;;;;;7.1;39.2;100030;;;;
2022/03/14 17:33:30;;;;;;;19.5;26.1;;;;;;;6.6;40.8;100050;;;;
2022/03/14 17:43:29;;;;;;;19;28.9;;;;;;;6.1;38.6;100060;;;;
2022/03/14 17:54:29;;;;;;;19;28.9;;;;;;;6.3;35.6;100070;;;;
2022/03/14 18:04:29;;;;;;;19;28.9;;;;;;;6.5;34;100070;;;;
2022/03/14 18:14:29;;;;;;;14.3;18.1;;;;;;;5.8;35.3;100090;;;;
2022/03/14 18:25:29;;;;;;;14.3;18.1;;;;;;;5.2;35.7;100090;;;;
2022/03/14 18:35:31;;;;;;;14.3;18.1;;;;;;;4.9;37.5;100100;;;;
2022/03/14 18:45:29;;;;;;;17.9;23.6;;;;;;;4.6;38.8;100120;;;;
2022/03/14 18:56:29;;;;;;;17.9;23.6;;;;;;;4.5;38.3;100140;;;;
2022/03/14 19:06:30;;;;;;;17.9;23.6;;;;;;;5.2;37.1;100150;;;;
2022/03/14 19:17:29;;;;;;;20.5;28.6;;;;;;;6;36.1;100160;;;;
2022/03/14 19:28:29;;;;;;;20.5;28.6;;;;;;;5.4;37.2;100170;;;;
2022/03/14 19:39:29;;;;;;;20.5;28.6;;;;;;;5.3;37.5;100180;;;;
2022/03/14 19:50:29;;;;;;;19.7;25;;;;;;;5.9;35.8;100190;;;;
2022/03/14 20:01:29;;;;;;;19.7;25;;;;;;;5.9;35.7;100200;;;;
2022/03/14 20:11:31;;;;;;;19.7;25;;;;;;;5.8;36;100210;;;;
2022/03/14 20:21:29;;;;;;;20.3;24.7;;;;;;;5.8;35.8;100210;;;;
2022/03/14 20:32:31;;;;;;;20.3;24.7;;;;;;;5.5;37.6;100220;;;;
2022/03/14 20:43:29;;;;;;;29.3;32.9;;;;;;;5.5;37.7;100210;;;;
2022/03/14 20:53:30;;;;;;;29.3;32.9;;;;;;;5.6;37;100210;;;;
2022/03/14 21:04:29;;;;;;;29.3;32.9;;;;;;;5.9;36.4;100210;;;;
2022/03/14 21:14:30;;;;;;;16;21.8;;;;;;;5.6;37.4;100200;;;;
2022/03/14 21:24:29;;;;;;;16;21.8;;;;;;;6;36.8;100200;;;;
2022/03/14 21:34:29;;;;;;;16;21.8;;;;;;;6.3;36.3;100190;;;;
2022/03/14 21:45:29;;;;;;;14.6;21.6;;;;;;;6.4;36.4;100190;;;;
2022/03/14 21:55:30;;;;;;;14.6;21.6;;;;;;;6.3;35.7;100200;;;;
2022/03/14 22:05:30;;;;;;;14.6;21.6;;;;;;;5.6;39.6;100200;;;;
2022/03/14 22:16:30;;;;;;;28.4;38.3;;;;;;;4.8;40.7;100210;;;;
2022/03/14 22:26:29;;;;;;;28.4;38.3;;;;;;;4.1;42.9;100210;;;;
2022/03/14 22:36:29;;;;;;;28.4;38.3;;;;;;;3.8;44.7;100210;;;;
2022/03/14 22:46:29;;;;;;;42.3;50;;;;;;;3.5;44.4;100220;;;;
2022/03/14 22:57:29;;;;;;;42.3;50;;;;;;;3;45.4;100220;;;;
2022/03/14 23:08:29;;;;;;;42.3;50;;;;;;;2.6;47.2;100220;;;;
2022/03/14 23:18:31;;;;;;;49.7;59.1;;;;;;;2.2;47.5;100220;;;;
2022/03/14 23:29:29;;;;;;;49.7;59.1;;;;;;;1.8;47.9;100230;;;;
2022/03/14 23:40:37;;;;;;;49.7;59.1;;;;;;;1.6;48.5;100230;;;;
2022/03/14 23:50:29;;;;;;;42.3;51.7;;;;;;;1.4;48.9;100230;;;;
